Time;durP1;ratioP1;P1;durP2;ratioP2;P2;SDS_P1;SDS_P2;PMS_P1;PMS_P2;Temp;Humidity;BMP_temperature;BMP_pressure;BME280_temperature;BME280_humidity;BME280_pressure;Samples;Min_cycle;Max_cycle;Signal;HPM_P1;HPM_P2
2020/12/05 00:01:27;;;;;;;1.27;1.17;;;11.90;79.40;;;;;;5094885;28;20269;-46
2020/12/05 00:03:53;;;;;;;1.33;1.10;;;11.90;79.50;;;;;;5093198;28;20040;-44
2020/12/05 00:06:23;;;;;;;1.38;1.25;;;11.90;79.20;;;;;;5092210;28;20042;-45
2020/12/05 00:08:52;;;;;;;1.42;1.20;;;11.90;80.10;;;;;;5058428;28;20581;-45
2020/12/05 00:11:28;;;;;;;1.38;1.27;;;11.90;79.60;;;;;;5093914;28;20128;-45
2020/12/05 00:13:54;;;;;;;1.90;1.35;;;11.90;79.60;;;;;;5091855;28;20680;-46
2020/12/05 00:16:20;;;;;;;1.25;1.10;;;11.90;79.60;;;;;;5117232;27;20060;-45
2020/12/05 00:18:54;;;;;;;1.20;1.10;;;11.90;80.30;;;;;;5124252;27;20032;-45
2020/12/05 00:21:20;;;;;;;1.17;1.05;;;11.90;79.70;;;;;;5122314;27;20020;-45
2020/12/05 00:23:47;;;;;;;1.20;1.13;;;11.90;79.60;;;;;;5124887;27;20031;-45
2020/12/05 00:26:17;;;;;;;1.52;1.40;;;11.90;79.60;;;;;;5126511;27;20023;-44
2020/12/05 00:28:43;;;;;;;1.23;1.10;;;11.90;80.00;;;;;;5160643;27;20034;-45
2020/12/05 00:31:11;;;;;;;1.50;1.40;;;11.90;79.80;;;;;;5144874;27;20023;-47
2020/12/05 00:33:37;;;;;;;1.33;0.90;;;11.90;79.80;;;;;;5145015;27;20135;-44
2020/12/05 00:36:04;;;;;;;1.20;1.10;;;11.90;79.80;;;;;;5141063;27;20808;-45
2020/12/05 00:38:30;;;;;;;1.45;1.30;;;11.90;80.10;;;;;;5104116;28;20032;-45
2020/12/05 00:40:56;;;;;;;0.75;0.75;;;11.90;80.00;;;;;;5117176;28;20073;-45
2020/12/05 00:43:22;;;;;;;1.40;1.30;;;11.90;79.80;;;;;;5123438;27;20038;-45
2020/12/05 00:45:49;;;;;;;1.08;0.98;;;11.90;80.10;;;;;;5123974;28;20023;-45
2020/12/05 00:48:16;;;;;;;1.20;1.10;;;11.90;80.00;;;;;;5123784;28;20034;-44
2020/12/05 00:50:42;;;;;;;1.30;1.13;;;11.90;80.00;;;;;;5141423;27;20055;-44
2020/12/05 00:53:08;;;;;;;1.10;0.90;;;11.90;80.20;;;;;;5144349;27;21076;-45
2020/12/05 00:55:34;;;;;;;1.13;1.05;;;11.90;79.60;;;;;;5128272;27;20035;-45
2020/12/05 00:58:00;;;;;;;1.30;1.20;;;11.90;80.00;;;;;;5123511;28;20032;-45
2020/12/05 01:00:26;;;;;;;1.10;1.00;;;11.90;80.00;;;;;;5123698;28;20066;-45
2020/12/05 01:02:53;;;;;;;1.25;1.15;;;11.90;80.20;;;;;;5123510;28;20031;-44
2020/12/05 01:05:19;;;;;;;1.30;1.20;;;11.90;80.40;;;;;;5123734;28;20031;-45
2020/12/05 01:07:45;;;;;;;1.20;1.10;;;11.90;80.20;;;;;;5109133;28;20024;-43
2020/12/05 01:10:11;;;;;;;1.10;1.00;;;11.90;80.30;;;;;;5103376;28;20070;-45
2020/12/05 01:12:38;;;;;;;1.20;1.10;;;11.90;80.60;;;;;;5103275;28;20074;-45
2020/12/05 01:15:04;;;;;;;1.38;1.20;;;11.90;80.40;;;;;;5096077;28;20056;-45
2020/12/05 01:17:35;;;;;;;0.88;0.88;;;11.90;80.00;;;;;;5082871;28;20040;-45
2020/12/05 01:20:04;;;;;;;1.20;1.08;;;11.90;79.80;;;;;;5082558;28;20054;-45
2020/12/05 01:22:30;;;;;;;1.20;0.95;;;11.90;80.00;;;;;;5082668;28;20513;-44
2020/12/05 01:24:56;;;;;;;1.20;1.10;;;11.90;80.00;;;;;;5093278;28;20031;-45
2020/12/05 01:27:22;;;;;;;1.42;1.25;;;11.90;79.90;;;;;;5102804;28;20028;-46
2020/12/05 01:29:48;;;;;;;1.40;1.30;;;11.90;80.00;;;;;;5102684;28;20028;-46
2020/12/05 01:32:15;;;;;;;1.63;1.30;;;11.90;79.60;;;;;;5103051;28;20028;-44
2020/12/05 01:34:41;;;;;;;1.52;1.17;;;11.90;79.60;;;;;;5102838;28;20024;-45
2020/12/05 01:37:07;;;;;;;1.10;1.00;;;11.90;79.60;;;;;;5102236;28;20024;-45
2020/12/05 01:39:34;;;;;;;1.27;1.17;;;11.90;79.50;;;;;;5084208;28;20050;-45
2020/12/05 01:42:00;;;;;;;1.50;1.00;;;11.90;79.60;;;;;;5102540;28;20277;-45
2020/12/05 01:44:26;;;;;;;1.20;1.10;;;11.80;79.50;;;;;;5102728;28;20044;-46
2020/12/05 01:46:52;;;;;;;1.35;1.25;;;11.80;79.50;;;;;;5102849;28;20046;-44
2020/12/05 01:49:20;;;;;;;1.63;1.20;;;11.80;79.50;;;;;;5084274;28;20024;-45
2020/12/05 01:51:46;;;;;;;1.13;1.02;;;11.80;79.40;;;;;;5102367;28;20027;-45
2020/12/05 01:54:13;;;;;;;1.50;1.30;;;11.80;79.40;;;;;;5079833;28;20031;-45
2020/12/05 01:56:43;;;;;;;3.58;1.40;;;11.80;79.50;;;;;;5084385;28;20027;-46
2020/12/05 01:59:10;;;;;;;1.67;1.17;;;11.80;79.50;;;;;;5102037;28;20054;-44
2020/12/05 02:01:36;;;;;;;1.25;1.00;;;11.80;79.50;;;;;;5102542;28;20050;-45
2020/12/05 02:04:02;;;;;;;1.50;1.40;;;11.80;79.50;;;;;;5084446;28;20047;-44
2020/12/05 02:06:48;;;;;;;1.40;1.20;;;11.80;79.50;;;;;;5099070;28;20029;-46
2020/12/05 02:09:17;;;;;;;1.90;1.50;;;11.80;79.50;;;;;;5069674;28;20032;-45
2020/12/05 02:11:53;;;;;;;2.70;1.70;;;11.80;79.60;;;;;;5102451;28;20053;-45
2020/12/05 02:14:20;;;;;;;2.40;1.42;;;11.80;79.50;;;;;;5064914;28;20027;-45
2020/12/05 02:16:47;;;;;;;1.83;1.60;;;11.80;79.50;;;;;;5068483;28;20195;-45
2020/12/05 02:19:16;;;;;;;1.88;1.60;;;11.70;79.50;;;;;;5068325;28;20522;-46
2020/12/05 02:21:42;;;;;;;3.50;1.60;;;11.70;79.40;;;;;;5087189;28;20054;-45
2020/12/05 02:24:09;;;;;;;1.65;1.45;;;11.70;79.40;;;;;;5068149;28;20105;-46
2020/12/05 02:26:35;;;;;;;1.93;1.70;;;11.70;79.40;;;;;;5084836;28;20021;-46
2020/12/05 02:29:01;;;;;;;2.10;1.58;;;11.70;79.40;;;;;;5084340;28;20028;-45
2020/12/05 02:31:27;;;;;;;2.58;1.88;;;11.70;79.40;;;;;;5085981;28;20025;-45
2020/12/05 02:33:54;;;;;;;1.92;1.55;;;11.70;79.40;;;;;;5101540;28;20135;-45
2020/12/05 02:36:20;;;;;;;2.08;1.60;;;11.70;79.30;;;;;;5089582;28;20020;-45
2020/12/05 02:39:01;;;;;;;1.45;1.30;;;11.70;79.40;;;;;;5085701;28;20036;-45
2020/12/05 02:41:27;;;;;;;2.00;1.63;;;11.70;79.30;;;;;;5102559;28;20027;-45
2020/12/05 02:43:53;;;;;;;1.83;1.67;;;11.70;79.30;;;;;;5106183;28;20063;-45
2020/12/05 02:46:20;;;;;;;1.67;1.38;;;11.70;79.30;;;;;;5105976;28;20391;-45
2020/12/05 02:48:47;;;;;;;1.77;1.30;;;11.60;79.20;;;;;;5087981;28;20116;-45
2020/12/05 02:51:13;;;;;;;2.00;1.80;;;11.60;79.20;;;;;;5105779;28;20028;-44
2020/12/05 02:53:39;;;;;;;1.80;1.70;;;11.60;79.20;;;;;;5105373;28;20031;-45
2020/12/05 02:56:06;;;;;;;2.67;1.80;;;11.60;79.20;;;;;;5105810;28;20123;-44
2020/12/05 02:58:32;;;;;;;2.10;1.60;;;11.60;79.20;;;;;;5105693;28;20100;-45
2020/12/05 03:00:58;;;;;;;2.28;1.70;;;11.60;79.20;;;;;;5105279;28;20028;-44
2020/12/05 03:03:24;;;;;;;1.75;1.65;;;11.60;79.20;;;;;;5105797;28;20032;-45
2020/12/05 03:05:50;;;;;;;2.72;2.00;;;11.50;79.10;;;;;;5105784;28;20028;-45
2020/12/05 03:08:16;;;;;;;2.28;1.80;;;11.60;79.20;;;;;;5086946;28;20028;-45
2020/12/05 03:10:43;;;;;;;2.45;1.90;;;11.50;79.10;;;;;;5084934;28;20048;-46
2020/12/05 03:13:09;;;;;;;2.20;2.00;;;11.50;79.10;;;;;;5085171;28;20024;-44
2020/12/05 03:15:35;;;;;;;2.72;2.00;;;11.50;79.10;;;;;;5085006;28;20049;-45
2020/12/05 03:18:01;;;;;;;2.55;1.90;;;11.50;79.10;;;;;;5085076;28;20083;-45
2020/12/05 03:20:27;;;;;;;3.63;1.73;;;11.50;79.10;;;;;;5084789;28;20043;-44
2020/12/05 03:22:53;;;;;;;3.63;2.15;;;11.50;79.10;;;;;;5085011;28;20119;-46
2020/12/05 03:25:20;;;;;;;2.10;1.90;;;11.50;79.10;;;;;;5098439;28;20027;-47
2020/12/05 03:27:46;;;;;;;2.60;2.00;;;11.50;79.10;;;;;;5105280;28;20031;-45
2020/12/05 03:30:12;;;;;;;2.15;1.95;;;11.50;79.10;;;;;;5104852;28;20073;-45
2020/12/05 03:32:38;;;;;;;2.88;2.05;;;11.40;79.10;;;;;;5105076;28;20078;-45
2020/12/05 03:35:04;;;;;;;2.38;1.90;;;11.40;79.00;;;;;;5105119;28;20028;-45
2020/12/05 03:37:31;;;;;;;1.92;1.80;;;11.40;79.00;;;;;;5104693;28;20021;-45
2020/12/05 03:39:57;;;;;;;2.63;1.90;;;11.40;79.00;;;;;;5104575;28;20024;-45
2020/12/05 03:42:23;;;;;;;3.05;1.90;;;11.40;79.00;;;;;;5104905;28;20020;-45
2020/12/05 03:44:49;;;;;;;2.92;2.00;;;11.30;78.90;;;;;;5104898;28;20020;-45
2020/12/05 03:47:15;;;;;;;3.22;2.13;;;11.30;78.90;;;;;;5104990;28;20106;-45
2020/12/05 03:49:42;;;;;;;2.45;2.15;;;11.30;78.90;;;;;;5086512;28;20396;-45
2020/12/05 03:52:08;;;;;;;2.40;2.17;;;11.30;78.90;;;;;;5104561;28;20032;-44
2020/12/05 03:54:34;;;;;;;2.30;2.03;;;11.30;78.90;;;;;;5104606;28;20059;-45
2020/12/05 03:57:00;;;;;;;2.30;2.03;;;11.30;78.90;;;;;;5086592;28;20032;-45
2020/12/05 03:59:26;;;;;;;3.10;2.38;;;11.30;78.90;;;;;;5104557;28;20077;-45
2020/12/05 04:01:52;;;;;;;2.63;2.00;;;11.30;78.90;;;;;;5086291;28;20054;-45
2020/12/05 04:04:19;;;;;;;2.67;1.90;;;11.30;78.90;;;;;;5104652;28;20055;-45
2020/12/05 04:06:45;;;;;;;2.70;2.40;;;11.30;78.90;;;;;;5098632;28;20044;-45
2020/12/05 04:09:11;;;;;;;3.28;2.22;;;11.30;78.90;;;;;;5084106;28;20021;-45
2020/12/05 04:11:40;;;;;;;3.60;2.40;;;11.20;78.80;;;;;;5098002;28;20032;-44
2020/12/05 04:14:07;;;;;;;3.33;2.10;;;11.20;78.80;;;;;;5086579;28;20103;-45
2020/12/05 04:16:34;;;;;;;2.75;2.30;;;11.20;78.80;;;;;;5123385;28;20063;-45
2020/12/05 04:19:00;;;;;;;2.47;1.90;;;11.20;78.80;;;;;;5124607;28;20044;-45
2020/12/05 04:21:27;;;;;;;3.08;2.53;;;11.20;78.90;;;;;;5124493;28;20023;-45
2020/12/05 04:23:53;;;;;;;2.60;2.40;;;11.20;78.90;;;;;;5126356;27;20035;-45
2020/12/05 04:26:20;;;;;;;3.38;2.40;;;11.20;78.90;;;;;;5145126;27;20024;-44
2020/12/05 04:28:46;;;;;;;;;;;11.20;78.90;;;;;;5136017;27;20029;-45
2020/12/05 04:31:13;;;;;;;2.65;2.20;;;11.10;78.90;;;;;;5124195;28;19975;-44
2020/12/05 04:33:39;;;;;;;2.92;2.63;;;11.10;78.80;;;;;;5124561;28;20046;-45
2020/12/05 04:36:05;;;;;;;3.75;2.22;;;11.10;78.80;;;;;;5123756;28;20019;-45
2020/12/05 04:38:31;;;;;;;3.13;2.45;;;11.10;78.80;;;;;;5084965;28;20042;-45
2020/12/05 04:40:58;;;;;;;2.95;2.40;;;11.10;78.80;;;;;;5103677;28;20025;-44
2020/12/05 04:43:24;;;;;;;2.92;2.58;;;11.10;78.80;;;;;;5103994;28;20024;-45
2020/12/05 04:45:51;;;;;;;2.95;2.55;;;11.10;78.90;;;;;;5069834;28;20031;-44
2020/12/05 04:48:17;;;;;;;2.70;2.50;;;11.10;78.90;;;;;;5094802;28;20754;-45
2020/12/05 04:50:45;;;;;;;3.22;2.38;;;11.00;78.80;;;;;;5103338;28;20028;-44
2020/12/05 04:53:21;;;;;;;3.03;2.42;;;11.00;78.80;;;;;;5085518;28;20075;-45
2020/12/05 04:55:48;;;;;;;3.35;2.38;;;11.00;78.80;;;;;;5135829;27;20020;-45
2020/12/05 04:58:21;;;;;;;2.88;2.45;;;11.00;78.80;;;;;;5103329;28;20047;-44
2020/12/05 05:00:54;;;;;;;2.95;2.47;;;11.00;78.80;;;;;;5103203;28;20036;-44
2020/12/05 05:03:22;;;;;;;3.92;3.08;;;11.00;78.80;;;;;;5103607;28;20111;-45
2020/12/05 05:05:53;;;;;;;2.97;2.33;;;11.00;78.80;;;;;;5104887;28;20051;-45
2020/12/05 05:08:19;;;;;;;3.03;2.45;;;10.90;78.70;;;;;;5086317;28;20029;-45
2020/12/05 05:10:45;;;;;;;3.55;2.60;;;10.90;78.70;;;;;;5103370;28;20050;-45
2020/12/05 05:13:19;;;;;;;2.50;2.22;;;10.90;78.70;;;;;;5102952;28;20020;-44
2020/12/05 05:15:45;;;;;;;2.92;2.58;;;10.90;78.70;;;;;;5090405;28;20052;-46
2020/12/05 05:18:12;;;;;;;2.60;2.17;;;10.90;78.70;;;;;;5082983;28;20048;-44
2020/12/05 05:20:47;;;;;;;2.23;2.03;;;10.90;78.70;;;;;;5082879;28;20028;-45
2020/12/05 05:23:13;;;;;;;2.97;2.55;;;10.90;78.70;;;;;;5082810;28;20032;-44
2020/12/05 05:25:56;;;;;;;3.00;2.70;;;10.80;78.70;;;;;;5099400;28;20032;-45
2020/12/05 05:28:31;;;;;;;3.80;2.47;;;10.80;78.70;;;;;;5084868;28;20020;-45
2020/12/05 05:33:43;;;;;;;3.17;2.60;;;10.80;78.70;;;;;;5102778;28;20036;-44
2020/12/05 05:36:28;;;;;;;2.95;2.58;;;10.80;78.70;;;;;;5102899;28;20021;-46
2020/12/05 05:39:05;;;;;;;2.92;2.63;;;10.80;78.70;;;;;;5102730;28;20078;-45
2020/12/05 05:41:32;;;;;;;2.97;2.63;;;10.80;78.70;;;;;;5084463;28;20424;-46
2020/12/05 05:43:59;;;;;;;3.10;2.58;;;10.80;78.70;;;;;;5103026;28;20050;-45
2020/12/05 05:46:30;;;;;;;3.30;2.60;;;10.70;78.60;;;;;;5102554;28;20101;-45
2020/12/05 05:48:56;;;;;;;2.85;2.35;;;10.70;78.60;;;;;;5102653;28;20032;-45
2020/12/05 05:51:44;;;;;;;2.93;2.67;;;10.70;78.70;;;;;;5102749;28;20028;-45
2020/12/05 05:54:11;;;;;;;3.50;2.67;;;10.70;78.70;;;;;;5092373;28;20286;-45
2020/12/05 05:56:43;;;;;;;2.28;1.90;;;10.70;78.60;;;;;;5102789;28;20028;-45
2020/12/05 05:59:09;;;;;;;3.28;2.65;;;10.70;78.60;;;;;;5084378;28;20841;-44
2020/12/05 06:01:36;;;;;;;3.08;2.53;;;10.70;78.60;;;;;;5084252;28;20032;-44
2020/12/05 06:04:03;;;;;;;4.20;3.20;;;10.60;78.50;;;;;;5102367;28;20049;-46
2020/12/05 06:06:32;;;;;;;3.40;3.10;;;10.60;78.60;;;;;;5080894;28;20534;-45
2020/12/05 06:09:02;;;;;;;3.35;2.50;;;10.60;78.60;;;;;;5064436;28;20051;-45
2020/12/05 06:11:31;;;;;;;3.20;2.90;;;10.60;78.50;;;;;;5081448;28;20089;-45
2020/12/05 06:14:02;;;;;;;3.17;2.50;;;10.60;78.60;;;;;;5064692;28;20032;-47
2020/12/05 06:16:28;;;;;;;3.40;2.53;;;10.60;78.70;;;;;;5064383;28;20103;-45
2020/12/05 06:18:56;;;;;;;2.33;2.05;;;10.60;78.60;;;;;;5098157;28;20118;-45
2020/12/05 06:21:33;;;;;;;3.75;2.75;;;10.60;78.60;;;;;;5067321;28;20047;-45
2020/12/05 06:24:08;;;;;;;4.03;2.78;;;10.50;78.60;;;;;;5068984;28;20804;-45
2020/12/05 06:26:35;;;;;;;3.72;2.80;;;10.50;78.60;;;;;;5067818;28;20092;-44
2020/12/05 06:29:02;;;;;;;4.28;3.08;;;10.50;78.60;;;;;;5067734;28;20029;-44
2020/12/05 06:31:44;;;;;;;3.30;2.90;;;10.50;78.60;;;;;;5102096;28;20076;-45
2020/12/05 06:34:11;;;;;;;3.83;2.85;;;10.50;78.60;;;;;;5084269;28;20024;-45
2020/12/05 06:36:41;;;;;;;3.08;2.78;;;10.50;78.60;;;;;;5102050;28;20027;-44
2020/12/05 06:39:07;;;;;;;3.05;2.75;;;10.50;78.70;;;;;;5102015;28;20047;-44
2020/12/05 06:42:02;;;;;;;3.33;3.00;;;10.50;78.70;;;;;;5102070;28;20046;-44
2020/12/05 06:44:31;;;;;;;2.95;2.47;;;10.50;78.60;;;;;;5019433;28;20085;-45
2020/12/05 06:47:07;;;;;;;3.28;2.72;;;10.50;78.70;;;;;;5019320;28;20030;-44
2020/12/05 06:49:37;;;;;;;3.47;2.70;;;10.40;78.50;;;;;;5019380;28;20029;-45
2020/12/05 06:52:24;;;;;;;3.50;3.03;;;10.40;78.50;;;;;;5016047;28;20041;-45
2020/12/05 06:54:55;;;;;;;5.50;3.10;;;10.40;78.60;;;;;;5009308;28;20044;-44
2020/12/05 06:57:25;;;;;;;3.80;3.10;;;10.40;78.60;;;;;;5019521;28;20034;-44
2020/12/05 06:59:51;;;;;;;3.97;3.17;;;10.40;78.60;;;;;;5020002;28;20093;-44
2020/12/05 07:02:30;;;;;;;3.60;2.90;;;10.40;78.60;;;;;;5022483;28;20091;-45
2020/12/05 07:05:21;;;;;;;3.35;2.65;;;10.40;78.60;;;;;;5023051;28;20030;-45
2020/12/05 07:07:53;;;;;;;3.78;3.00;;;10.30;78.50;;;;;;5022924;28;20042;-44
2020/12/05 07:10:42;;;;;;;3.65;2.85;;;10.30;78.50;;;;;;5022628;28;20033;-45
2020/12/05 07:13:38;;;;;;;3.10;2.80;;;10.30;78.50;;;;;;5015106;28;20034;-45
2020/12/05 07:16:08;;;;;;;2.97;2.65;;;10.30;78.60;;;;;;5037021;28;20104;-45
2020/12/05 07:18:35;;;;;;;3.95;3.20;;;10.30;78.60;;;;;;5042343;28;20033;-45
2020/12/05 07:21:01;;;;;;;2.93;2.63;;;10.30;78.60;;;;;;5068274;28;20029;-45
2020/12/05 07:23:27;;;;;;;2.97;2.55;;;10.30;78.60;;;;;;5103963;28;20265;-46
2020/12/05 07:25:53;;;;;;;3.70;3.17;;;10.30;78.70;;;;;;5123797;28;20039;-45
2020/12/05 07:28:19;;;;;;;2.97;2.60;;;10.20;78.50;;;;;;5125782;28;20020;-45
2020/12/05 07:30:45;;;;;;;3.97;3.10;;;10.20;78.60;;;;;;5125522;28;20080;-45
2020/12/05 07:33:12;;;;;;;4.05;2.97;;;10.20;78.70;;;;;;5125641;28;20459;-45
2020/12/05 07:35:38;;;;;;;3.53;3.13;;;10.20;78.60;;;;;;5107196;28;20035;-45
2020/12/05 07:38:15;;;;;;;3.42;2.88;;;10.20;78.60;;;;;;5101369;28;20086;-48
2020/12/05 07:40:41;;;;;;;3.33;2.72;;;10.20;78.70;;;;;;5086991;28;20039;-46
2020/12/05 07:43:18;;;;;;;3.13;2.83;;;10.20;78.70;;;;;;5105040;28;20020;-45
2020/12/05 07:45:45;;;;;;;3.20;2.88;;;10.20;78.70;;;;;;5086552;28;20579;-45
2020/12/05 07:48:12;;;;;;;3.80;3.15;;;10.20;78.70;;;;;;5104924;28;20036;-45
2020/12/05 07:50:38;;;;;;;;;;;10.10;78.70;;;;;;5105468;28;20571;-45
2020/12/05 07:53:04;;;;;;;3.55;2.90;;;10.10;78.60;;;;;;5104828;28;19911;-46
2020/12/05 07:55:30;;;;;;;3.30;3.00;;;10.10;78.70;;;;;;5086679;28;20028;-45
2020/12/05 07:57:57;;;;;;;3.85;3.00;;;10.10;78.60;;;;;;5104655;28;20063;-45
2020/12/05 08:00:23;;;;;;;3.97;3.17;;;10.10;78.70;;;;;;5104589;28;20030;-45
2020/12/05 08:02:54;;;;;;;3.50;3.10;;;10.10;78.60;;;;;;5104355;28;20044;-46
2020/12/05 08:05:29;;;;;;;3.00;2.60;;;10.10;78.70;;;;;;5104692;28;20021;-45
2020/12/05 08:07:57;;;;;;;4.00;3.28;;;10.10;78.60;;;;;;5085231;28;20025;-45
2020/12/05 08:10:27;;;;;;;3.25;2.75;;;10.10;78.60;;;;;;5084329;28;20073;-46
2020/12/05 08:12:59;;;;;;;3.90;3.30;;;10.10;78.70;;;;;;5083022;28;20033;-46
2020/12/05 08:15:25;;;;;;;3.25;2.95;;;10.00;78.60;;;;;;5084303;28;20044;-45
2020/12/05 08:17:51;;;;;;;3.15;2.75;;;10.00;78.60;;;;;;5065747;28;20032;-45
2020/12/05 08:20:17;;;;;;;3.42;3.05;;;10.00;78.70;;;;;;5086128;28;20039;-44
2020/12/05 08:22:43;;;;;;;3.58;3.28;;;10.00;78.70;;;;;;5085933;28;20020;-45
2020/12/05 08:25:12;;;;;;;3.63;3.22;;;10.00;78.70;;;;;;5104323;28;20045;-45
2020/12/05 08:27:38;;;;;;;3.13;2.80;;;10.00;78.70;;;;;;5085956;28;20035;-44
2020/12/05 08:30:05;;;;;;;4.15;3.22;;;10.00;78.70;;;;;;5102840;28;20024;-45
2020/12/05 08:32:32;;;;;;;4.50;3.40;;;9.90;78.70;;;;;;5103421;28;20027;-44
2020/12/05 08:35:08;;;;;;;3.75;3.30;;;9.90;78.70;;;;;;5104085;28;20032;-45
2020/12/05 08:37:35;;;;;;;3.65;2.80;;;9.90;78.70;;;;;;5103992;28;20012;-45
2020/12/05 08:40:01;;;;;;;3.70;3.25;;;9.90;78.70;;;;;;5085529;28;20055;-44
2020/12/05 08:42:27;;;;;;;3.90;3.10;;;9.90;78.80;;;;;;5103306;28;20021;-45
2020/12/05 08:44:54;;;;;;;4.10;2.88;;;9.90;78.70;;;;;;5101650;28;20039;-44
2020/12/05 08:47:20;;;;;;;3.58;3.05;;;9.90;78.70;;;;;;5103640;28;20043;-44
2020/12/05 08:49:50;;;;;;;3.15;2.85;;;9.90;78.70;;;;;;5103947;28;20058;-44
2020/12/05 08:52:17;;;;;;;3.28;2.97;;;9.90;78.70;;;;;;5103565;28;20495;-45
2020/12/05 08:54:53;;;;;;;3.42;3.13;;;9.90;78.70;;;;;;5103831;28;20038;-44
2020/12/05 08:57:22;;;;;;;3.50;3.20;;;9.80;78.70;;;;;;5103626;28;20047;-44
2020/12/05 09:00:00;;;;;;;3.22;2.83;;;9.80;78.60;;;;;;5103592;28;20046;-45
2020/12/05 09:02:34;;;;;;;4.18;3.00;;;9.80;78.60;;;;;;5085812;28;20028;-44
2020/12/05 09:05:01;;;;;;;3.70;3.03;;;9.80;78.60;;;;;;5103664;28;20051;-44
2020/12/05 09:07:28;;;;;;;3.85;2.95;;;9.80;78.60;;;;;;5070067;28;20025;-44
2020/12/05 09:09:54;;;;;;;3.47;3.00;;;9.80;78.60;;;;;;5083077;28;20028;-45
2020/12/05 09:12:21;;;;;;;3.92;2.97;;;9.80;78.70;;;;;;5082789;28;20035;-44
2020/12/05 09:14:50;;;;;;;3.17;2.88;;;9.70;78.60;;;;;;5082773;28;20044;-45
2020/12/05 09:17:26;;;;;;;3.80;3.25;;;9.70;78.70;;;;;;5082931;28;20630;-47
2020/12/05 09:19:58;;;;;;;3.78;2.97;;;9.70;78.70;;;;;;5093087;28;20036;-45
2020/12/05 09:22:31;;;;;;;3.90;3.15;;;9.70;78.70;;;;;;5102590;28;20103;-44
2020/12/05 09:24:57;;;;;;;4.03;3.17;;;9.70;78.70;;;;;;5103146;28;20039;-44
2020/12/05 09:27:34;;;;;;;2.30;2.10;;;9.70;78.70;;;;;;5103071;28;20035;-45
2020/12/05 09:30:01;;;;;;;2.87;2.27;;;9.70;78.70;;;;;;5084797;28;20030;-45
2020/12/05 09:32:56;;;;;;;3.58;3.10;;;9.70;78.70;;;;;;5102584;28;20267;-45
2020/12/05 09:35:24;;;;;;;3.33;2.85;;;9.70;78.70;;;;;;5089868;28;20451;-44
2020/12/05 09:37:51;;;;;;;3.72;3.13;;;9.70;78.70;;;;;;5102308;28;20032;-44
2020/12/05 09:40:19;;;;;;;3.42;3.13;;;9.70;78.80;;;;;;5084694;28;20063;-45
2020/12/05 09:42:45;;;;;;;3.58;3.08;;;9.60;78.70;;;;;;5102475;28;20020;-44
2020/12/05 09:45:12;;;;;;;3.10;2.80;;;9.60;78.70;;;;;;5102738;28;20036;-45
2020/12/05 09:47:40;;;;;;;3.55;3.22;;;9.60;78.70;;;;;;5102722;28;20084;-45
2020/12/05 09:50:06;;;;;;;4.60;3.28;;;9.60;79.50;;;;;;5084903;28;20028;-45
2020/12/05 09:52:33;;;;;;;3.10;2.42;;;9.60;78.70;;;;;;5102875;28;20028;-48
2020/12/05 09:54:59;;;;;;;3.88;3.13;;;9.60;78.70;;;;;;5091689;28;20028;-46
2020/12/05 09:57:25;;;;;;;3.15;2.85;;;9.60;78.70;;;;;;5082495;28;20104;-45
2020/12/05 09:59:51;;;;;;;3.83;3.20;;;9.60;78.80;;;;;;5082408;28;20032;-45
2020/12/05 10:02:17;;;;;;;3.05;2.75;;;9.60;78.70;;;;;;5082513;28;20016;-45
2020/12/05 10:04:43;;;;;;;3.22;2.92;;;9.50;78.70;;;;;;5082084;28;20039;-45
2020/12/05 10:07:10;;;;;;;3.55;3.10;;;9.60;78.80;;;;;;5091412;28;20047;-45
2020/12/05 10:09:36;;;;;;;3.20;2.90;;;9.50;78.80;;;;;;5102687;28;20031;-45
2020/12/05 10:12:02;;;;;;;3.15;2.85;;;9.50;78.80;;;;;;5102619;28;20035;-45
2020/12/05 10:14:28;;;;;;;3.45;2.90;;;9.50;78.70;;;;;;5103304;28;20028;-44
2020/12/05 10:16:54;;;;;;;4.38;3.30;;;9.50;78.80;;;;;;5104482;28;20048;-46
2020/12/05 10:19:21;;;;;;;3.15;2.85;;;9.50;78.80;;;;;;5128889;28;20092;-45
2020/12/05 10:21:47;;;;;;;3.28;2.97;;;9.50;78.80;;;;;;5143463;28;20069;-45
2020/12/05 10:24:15;;;;;;;3.75;3.40;;;9.40;78.80;;;;;;5138427;28;20041;-45
2020/12/05 10:26:41;;;;;;;;;;;9.40;78.80;;;;;;5123491;28;20027;-45
2020/12/05 10:29:07;;;;;;;3.20;2.70;;;9.40;78.80;;;;;;5122976;28;19947;-45
2020/12/05 10:31:33;;;;;;;3.35;3.00;;;9.40;78.80;;;;;;5122812;28;20049;-45
2020/12/05 10:33:59;;;;;;;4.03;2.95;;;9.40;78.80;;;;;;5132079;27;20107;-45
2020/12/05 10:36:26;;;;;;;3.63;3.08;;;9.40;78.80;;;;;;5124985;28;20024;-46
2020/12/05 10:38:52;;;;;;;3.50;3.20;;;9.40;78.80;;;;;;5126584;28;20050;-46
2020/12/05 10:41:18;;;;;;;3.10;2.80;;;9.40;78.80;;;;;;5126594;28;20043;-45
2020/12/05 10:43:45;;;;;;;3.90;3.03;;;9.40;78.80;;;;;;5108091;28;20024;-45
2020/12/05 10:46:11;;;;;;;2.42;2.20;;;9.40;78.80;;;;;;5126627;28;20043;-45
2020/12/05 10:48:37;;;;;;;3.63;3.00;;;9.30;78.70;;;;;;5129988;27;20032;-45
2020/12/05 10:51:03;;;;;;;3.33;3.03;;;9.30;79.40;;;;;;5126481;28;20023;-45
2020/12/05 10:53:29;;;;;;;3.08;2.78;;;9.30;78.80;;;;;;5126322;28;20027;-45
2020/12/05 10:55:55;;;;;;;3.33;3.00;;;9.30;78.70;;;;;;5126531;28;20024;-46
2020/12/05 10:58:21;;;;;;;4.03;2.80;;;9.30;78.80;;;;;;5126102;28;20110;-45
2020/12/05 11:00:48;;;;;;;3.00;2.80;;;9.30;78.80;;;;;;5126319;28;20095;-46
2020/12/05 11:03:14;;;;;;;3.40;3.03;;;9.30;78.80;;;;;;5126403;28;20024;-45
2020/12/05 11:05:40;;;;;;;3.45;2.83;;;9.30;78.80;;;;;;5125908;28;20106;-45
2020/12/05 11:08:06;;;;;;;3.63;2.85;;;9.30;78.80;;;;;;5105792;28;20054;-45
2020/12/05 11:10:33;;;;;;;3.40;2.90;;;9.30;78.80;;;;;;5105710;28;20059;-45
2020/12/05 11:12:59;;;;;;;3.83;3.13;;;9.30;78.80;;;;;;5105629;28;20114;-45
2020/12/05 11:15:25;;;;;;;3.30;2.88;;;9.20;78.80;;;;;;5095833;28;20040;-45
2020/12/05 11:17:51;;;;;;;3.53;3.10;;;9.20;78.80;;;;;;5085192;28;20833;-45
2020/12/05 11:20:20;;;;;;;5.22;3.45;;;9.20;78.80;;;;;;5099136;28;20020;-45
2020/12/05 11:22:46;;;;;;;3.20;2.90;;;9.20;79.50;;;;;;5105571;28;20020;-45
2020/12/05 11:25:13;;;;;;;3.40;2.72;;;9.20;78.80;;;;;;5105108;28;20032;-44
2020/12/05 11:27:39;;;;;;;2.33;2.13;;;9.20;78.90;;;;;;5105426;28;20035;-45
2020/12/05 11:30:05;;;;;;;2.63;2.27;;;9.20;78.90;;;;;;5105647;28;20031;-45
2020/12/05 11:32:32;;;;;;;3.63;2.83;;;9.20;78.90;;;;;;5105428;28;20020;-46
2020/12/05 11:34:58;;;;;;;3.55;2.80;;;9.10;78.80;;;;;;5105138;28;20031;-46
2020/12/05 11:37:24;;;;;;;3.50;3.20;;;9.20;78.90;;;;;;5105430;28;20016;-45
2020/12/05 11:39:50;;;;;;;3.28;2.92;;;9.10;78.80;;;;;;5105156;28;20058;-45
2020/12/05 11:42:16;;;;;;;3.15;2.85;;;9.20;78.90;;;;;;5105192;28;20024;-45
2020/12/05 11:44:42;;;;;;;3.50;2.83;;;9.10;78.80;;;;;;5104806;28;20032;-45
2020/12/05 11:47:08;;;;;;;3.00;2.80;;;9.10;78.80;;;;;;5104811;28;20103;-46
2020/12/05 11:49:35;;;;;;;3.15;2.78;;;9.10;78.80;;;;;;5105190;28;20016;-45
2020/12/05 11:52:01;;;;;;;3.05;2.75;;;9.10;78.80;;;;;;5104844;28;20024;-45
2020/12/05 11:54:28;;;;;;;2.92;2.63;;;9.10;78.80;;;;;;5104589;28;20046;-44
2020/12/05 11:56:54;;;;;;;3.33;2.90;;;9.10;78.80;;;;;;5104789;28;20032;-45
2020/12/05 11:59:20;;;;;;;3.28;2.97;;;9.00;78.80;;;;;;5104833;28;20058;-45
2020/12/05 12:01:46;;;;;;;2.88;2.60;;;9.10;78.90;;;;;;5104825;28;20084;-45
2020/12/05 12:04:12;;;;;;;3.00;2.70;;;9.00;78.80;;;;;;5104940;28;20080;-45
2020/12/05 12:06:38;;;;;;;3.35;2.97;;;9.00;78.80;;;;;;5099817;28;20162;-45
2020/12/05 12:09:07;;;;;;;3.70;2.33;;;9.00;78.90;;;;;;5084644;28;20038;-45
2020/12/05 12:11:33;;;;;;;3.20;2.90;;;9.00;78.90;;;;;;5084298;28;20029;-45
2020/12/05 12:13:59;;;;;;;3.50;3.05;;;9.00;78.90;;;;;;5084406;28;20024;-44
2020/12/05 12:16:25;;;;;;;3.72;2.85;;;9.00;78.90;;;;;;5089425;28;20040;-44
2020/12/05 12:18:54;;;;;;;3.35;3.00;;;9.00;78.90;;;;;;5104481;28;20043;-45
2020/12/05 12:21:24;;;;;;;3.47;2.90;;;9.00;78.80;;;;;;5104452;28;20056;-45
2020/12/05 12:23:51;;;;;;;2.63;2.42;;;9.00;78.80;;;;;;5104497;28;20036;-45
2020/12/05 12:26:17;;;;;;;3.53;3.10;;;8.90;78.80;;;;;;5085906;28;20031;-44
2020/12/05 12:28:43;;;;;;;3.13;2.67;;;9.00;78.90;;;;;;5104251;28;20024;-44
2020/12/05 12:31:10;;;;;;;3.20;2.80;;;8.90;78.80;;;;;;5086140;28;20008;-46
2020/12/05 12:33:37;;;;;;;2.95;2.65;;;8.90;78.90;;;;;;5104477;28;20435;-44
2020/12/05 12:36:03;;;;;;;3.08;2.78;;;8.90;78.90;;;;;;5103884;28;20032;-45
2020/12/05 12:38:29;;;;;;;3.30;2.67;;;8.90;78.90;;;;;;5083705;28;20049;-45
2020/12/05 12:40:55;;;;;;;3.53;3.13;;;8.90;78.90;;;;;;5078038;28;20027;-45
2020/12/05 12:43:21;;;;;;;3.05;2.75;;;8.90;79.00;;;;;;5103904;28;20053;-44
2020/12/05 12:45:48;;;;;;;3.03;2.50;;;8.90;79.00;;;;;;5103772;28;20058;-45
2020/12/05 12:50:49;;;;;;;2.88;2.58;;;8.80;78.90;;;;;;5104128;28;20032;-45
2020/12/05 12:53:15;;;;;;;3.17;2.88;;;8.90;79.00;;;;;;5103891;28;20031;-45
2020/12/05 12:55:44;;;;;;;2.83;2.58;;;8.80;78.90;;;;;;5103533;28;20600;-45
2020/12/05 12:58:15;;;;;;;2.80;2.58;;;8.80;78.90;;;;;;5102713;28;20040;-44
2020/12/05 13:00:41;;;;;;;2.90;2.60;;;8.80;78.90;;;;;;5103832;28;20032;-45